Time;durP1;ratioP1;P1;durP2;ratioP2;P2;SDS_P1;SDS_P2;PMS_P1;PMS_P2;Temp;Humidity;BMP_temperature;BMP_pressure;BME280_temperature;BME280_humidity;BME280_pressure;Samples;Min_cycle;Max_cycle;Signal;HPM_P1;HPM_P2
2024/01/06 00:00:56;;;;;;;21.02;13.63;;;;;;;6.98;100.00;100233.19;5034501;28;20025;-90
2024/01/06 00:03:21;;;;;;;22.17;14.13;;;;;;;6.93;100.00;100241.00;5034689;28;20442;-90
2024/01/06 00:05:47;;;;;;;21.00;13.73;;;;;;;6.93;100.00;100240.13;5034643;28;20071;-90
2024/01/06 00:08:12;;;;;;;20.10;13.00;;;;;;;6.77;100.00;100223.28;5034409;28;20022;-91
2024/01/06 00:10:40;;;;;;;21.23;12.93;;;;;;;6.51;100.00;100188.72;5034222;28;20029;-91
2024/01/06 00:13:05;;;;;;;18.95;12.73;;;;;;;6.48;100.00;100191.28;5034564;28;20025;-91
2024/01/06 00:15:31;;;;;;;21.70;13.02;;;;;;;6.64;100.00;100227.44;5016783;28;20018;-92
2024/01/06 00:17:58;;;;;;;19.98;13.65;;;;;;;6.83;100.00;100268.00;5016767;28;20373;-91
2024/01/06 00:20:24;;;;;;;21.05;13.80;;;;;;;6.42;100.00;100193.78;5034130;28;20041;-92
2024/01/06 00:22:49;;;;;;;24.15;14.35;;;;;;;6.58;100.00;100229.94;5034298;28;20086;-91
2024/01/06 00:25:17;;;;;;;21.40;14.00;;;;;;;6.29;100.00;100200.56;5017107;28;20416;-91
2024/01/06 00:27:45;;;;;;;20.55;14.02;;;;;;;6.36;100.00;100214.69;5034158;28;20053;-92
2024/01/06 00:30:10;;;;;;;20.08;13.23;;;;;;;6.47;100.00;100250.78;5016898;28;20656;-92
2024/01/06 00:32:41;;;;;;;22.60;14.32;;;;;;;6.26;100.00;100217.16;5034207;28;20052;-92
2024/01/06 00:35:07;;;;;;;21.80;14.57;;;;;;;6.32;100.00;100236.47;5016275;28;20025;-91
2024/01/06 00:37:32;;;;;;;23.33;15.38;;;;;;;6.41;100.00;100252.38;5015824;28;20038;-92
2024/01/06 00:39:57;;;;;;;24.17;14.80;;;;;;;6.43;100.00;100259.44;5033567;28;20025;-92
2024/01/06 00:42:23;;;;;;;23.15;15.40;;;;;;;6.60;100.00;100291.25;5033919;28;20034;-91
2024/01/06 00:44:48;;;;;;;23.83;15.40;;;;;;;6.30;100.00;100246.97;5016173;28;20030;-92
2024/01/06 00:47:14;;;;;;;25.20;15.77;;;;;;;6.51;100.00;100281.47;5033582;28;20421;-91
2024/01/06 00:49:41;;;;;;;25.48;15.32;;;;;;;6.47;100.00;100276.13;5016548;28;20030;-91
2024/01/06 00:52:07;;;;;;;25.67;15.88;;;;;;;6.38;100.00;100263.72;5015976;28;20409;-92
2024/01/06 00:54:32;;;;;;;25.73;16.13;;;;;;;6.45;100.00;100265.59;5033696;28;20067;-91
2024/01/06 00:56:57;;;;;;;24.15;14.88;;;;;;;6.61;100.00;100284.25;5015864;28;20041;-92
2024/01/06 00:59:25;;;;;;;22.15;13.77;;;;;;;6.53;100.00;100273.59;5015374;28;20048;-90
2024/01/06 01:01:50;;;;;;;23.73;14.40;;;;;;;6.67;100.00;100297.47;5033258;28;20033;-91
2024/01/06 01:04:16;;;;;;;22.23;14.25;;;;;;;6.60;100.00;100296.50;5015846;28;20060;-91
2024/01/06 01:06:41;;;;;;;21.80;14.15;;;;;;;6.43;100.00;100272.56;5033560;28;20079;-91
2024/01/06 01:09:14;;;;;;;23.02;14.27;;;;;;;6.48;100.00;100294.53;4999329;28;20370;-91
2024/01/06 01:11:43;;;;;;;24.27;14.25;;;;;;;6.41;100.00;100273.38;5016672;28;20030;-92
2024/01/06 01:14:08;;;;;;;25.92;14.00;;;;;;;6.35;100.00;100266.28;5033431;28;20120;-92
2024/01/06 01:16:34;;;;;;;25.13;15.43;;;;;;;6.57;100.00;100311.28;5033372;28;20029;-91
2024/01/06 01:19:01;;;;;;;23.15;14.63;;;;;;;6.16;100.00;100249.31;5015796;28;20043;-91
2024/01/06 01:21:29;;;;;;;24.92;15.18;;;;;;;6.44;100.00;100302.31;5033096;28;20035;-91
2024/01/06 01:24:02;;;;;;;21.38;13.98;;;;;;;6.22;100.00;100275.66;5015754;28;20029;-92
2024/01/06 01:26:30;;;;;;;25.45;14.00;;;;;;;6.52;100.00;100321.72;5016840;28;20083;-91
2024/01/06 01:28:55;;;;;;;22.67;13.68;;;;;;;6.48;100.00;100331.25;5033378;28;20053;-91
2024/01/06 01:31:21;;;;;;;21.58;13.18;;;;;;;6.50;100.00;100331.28;5015720;28;20068;-91
2024/01/06 01:33:53;;;;;;;19.05;12.45;;;;;;;6.27;100.00;100304.63;5015822;28;20450;-92
2024/01/06 01:36:19;;;;;;;19.55;12.43;;;;;;;6.20;100.00;100293.09;5015014;28;20050;-91
2024/01/06 01:38:44;;;;;;;20.33;12.23;;;;;;;6.06;100.00;100270.97;5032510;28;20028;-91
2024/01/06 01:41:10;;;;;;;18.60;11.55;;;;;;;6.42;100.00;100341.63;5033827;28;20031;-91
2024/01/06 01:43:35;;;;;;;17.70;11.20;;;;;;;6.34;100.00;100338.00;5033778;28;20032;-91
2024/01/06 01:46:01;;;;;;;16.80;10.68;;;;;;;6.06;100.00;100296.31;5033753;28;20036;-91
2024/01/06 01:48:27;;;;;;;17.77;10.93;;;;;;;5.96;100.00;100283.03;5033998;28;20471;-90
2024/01/06 01:50:59;;;;;;;16.58;10.15;;;;;;;6.14;100.00;100315.72;5033382;28;20355;-92
2024/01/06 01:53:25;;;;;;;14.80;10.10;;;;;;;6.37;100.00;100358.16;5033879;28;20025;-91
2024/01/06 01:55:54;;;;;;;16.20;10.23;;;;;;;6.22;100.00;100343.00;5033732;28;20032;-91
2024/01/06 01:58:20;;;;;;;15.15;9.70;;;;;;;6.16;100.00;100343.72;5033749;28;20025;-91
2024/01/06 02:00:45;;;;;;;15.13;9.93;;;;;;;6.15;100.00;100347.22;5015930;28;20033;-91
2024/01/06 02:03:13;;;;;;;15.45;10.00;;;;;;;6.14;100.00;100341.97;5015693;28;20032;-90
2024/01/06 02:05:39;;;;;;;14.75;9.93;;;;;;;6.05;100.00;100332.16;5015411;28;20034;-91
2024/01/06 02:08:07;;;;;;;16.77;10.52;;;;;;;5.99;100.00;100321.53;5033914;28;20026;-91
2024/01/06 02:10:34;;;;;;;16.17;9.82;;;;;;;5.89;100.00;100299.44;5033075;28;20029;-90
2024/01/06 02:13:09;;;;;;;14.75;9.45;;;;;;;6.14;100.00;100348.09;5037081;28;20061;-89
2024/01/06 02:15:35;;;;;;;16.00;10.25;;;;;;;6.02;100.00;100334.72;5019670;28;20044;-90
2024/01/06 02:18:00;;;;;;;15.27;9.95;;;;;;;5.90;100.00;100319.56;5037046;28;20021;-91
2024/01/06 02:20:30;;;;;;;15.52;9.70;;;;;;;5.86;100.00;100311.59;5019578;28;20034;-91
2024/01/06 02:22:56;;;;;;;15.25;10.68;;;;;;;5.74;100.00;100312.25;5036941;28;20021;-91
2024/01/06 02:25:22;;;;;;;15.98;10.05;;;;;;;6.16;100.00;100396.19;5037127;28;20454;-90
2024/01/06 02:27:48;;;;;;;14.60;9.48;;;;;;;5.98;100.00;100378.34;5037253;28;20064;-91
2024/01/06 02:30:13;;;;;;;15.02;9.93;;;;;;;5.77;100.00;100344.63;5036864;28;20173;-91
2024/01/06 02:32:41;;;;;;;14.90;9.45;;;;;;;6.05;100.00;100400.34;5037398;28;20088;-91
2024/01/06 02:35:07;;;;;;;13.32;9.13;;;;;;;5.84;100.00;100365.75;5036502;28;20022;-91
2024/01/06 02:37:32;;;;;;;15.77;9.20;;;;;;;5.97;100.00;100402.81;5035886;28;20096;-91
2024/01/06 02:39:57;;;;;;;12.18;8.48;;;;;;;6.03;100.00;100420.41;5018423;28;20437;-91
2024/01/06 02:42:25;;;;;;;13.15;9.07;;;;;;;5.95;100.00;100409.75;5002105;28;20121;-90
2024/01/06 02:44:50;;;;;;;14.02;9.18;;;;;;;5.98;100.00;100429.91;5036169;28;20029;-91
2024/01/06 02:47:16;;;;;;;14.18;9.35;;;;;;;5.71;100.00;100378.59;5018688;28;20351;-90
2024/01/06 02:49:41;;;;;;;13.77;9.27;;;;;;;5.75;100.00;100392.66;5035788;28;20478;-91
2024/01/06 02:52:07;;;;;;;12.90;9.18;;;;;;;5.94;100.00;100428.94;5018319;28;20065;-91
2024/01/06 02:54:34;;;;;;;13.60;9.40;;;;;;;5.62;100.00;100386.25;5018546;28;20032;-92
2024/01/06 02:57:00;;;;;;;12.65;8.52;;;;;;;5.52;100.00;100371.13;5019106;28;20033;-91
2024/01/06 02:59:25;;;;;;;14.13;8.90;;;;;;;5.82;100.00;100428.63;5035968;28;20033;-92
2024/01/06 03:01:51;;;;;;;14.70;9.45;;;;;;;5.82;100.00;100459.19;5035700;28;20076;-91
2024/01/06 03:04:16;;;;;;;13.60;9.15;;;;;;;5.60;100.00;100436.84;5018138;28;20037;-91
2024/01/06 03:06:42;;;;;;;12.23;8.60;;;;;;;5.29;100.00;100402.03;5035678;28;20060;-91
2024/01/06 03:09:08;;;;;;;13.02;8.77;;;;;;;5.46;100.00;100431.28;5034430;28;20357;-91
2024/01/06 03:11:33;;;;;;;12.65;8.15;;;;;;;5.67;100.00;100485.94;5017946;28;20033;-91
2024/01/06 03:13:58;;;;;;;10.50;7.45;;;;;;;5.66;100.00;100486.81;5018022;28;20025;-92
2024/01/06 03:16:26;;;;;;;10.98;7.20;;;;;;;5.47;100.00;100448.75;5018226;28;20033;-92
2024/01/06 03:18:51;;;;;;;10.20;7.57;;;;;;;5.30;100.00;100423.88;5017866;28;20058;-91
2024/01/06 03:21:18;;;;;;;11.98;7.90;;;;;;;5.60;100.00;100479.66;5035409;28;20048;-91
2024/01/06 03:23:43;;;;;;;9.45;6.93;;;;;;;5.42;100.00;100442.53;5033991;28;20029;-91
2024/01/06 03:26:09;;;;;;;11.93;7.43;;;;;;;5.72;100.00;100493.06;5017659;28;20021;-91
2024/01/06 03:28:36;;;;;;;9.15;6.50;;;;;;;5.32;100.00;100428.31;5018159;28;20036;-91
2024/01/06 03:31:04;;;;;;;9.32;7.00;;;;;;;5.32;100.00;100430.06;5036191;28;20024;-91
2024/01/06 03:33:32;;;;;;;8.32;6.20;;;;;;;5.24;100.00;100433.34;5036067;28;20025;-91
2024/01/06 03:36:00;;;;;;;8.32;5.93;;;;;;;5.14;100.00;100420.88;5017712;28;20458;-91
2024/01/06 03:38:25;;;;;;;7.80;5.78;;;;;;;5.20;100.00;100441.09;5035684;28;20033;-91
2024/01/06 03:40:51;;;;;;;8.20;5.47;;;;;;;5.24;100.00;100451.69;5017783;28;20045;-91
2024/01/06 03:43:16;;;;;;;7.57;5.60;;;;;;;5.35;100.00;100470.28;5018116;28;20026;-91
2024/01/06 03:45:45;;;;;;;8.18;5.90;;;;;;;5.15;100.00;100447.94;5017902;28;20036;-91
2024/01/06 03:48:12;;;;;;;7.43;5.50;;;;;;;5.19;100.00;100441.94;5017894;28;20029;-92
2024/01/06 03:50:38;;;;;;;7.28;5.55;;;;;;;5.21;100.00;100455.97;5017883;28;20077;-91
2024/01/06 03:53:03;;;;;;;8.27;5.80;;;;;;;5.21;100.00;100453.34;5035563;28;20064;-91
2024/01/06 03:55:29;;;;;;;8.85;6.05;;;;;;;5.21;100.00;100462.06;5017633;28;20033;-91
2024/01/06 03:57:54;;;;;;;8.70;5.78;;;;;;;5.39;100.00;100494.84;5017794;28;20025;-91
2024/01/06 04:00:29;;;;;;;8.80;6.43;;;;;;;5.21;100.00;100467.31;5035134;28;20032;-91
2024/01/06 04:02:54;;;;;;;8.10;6.38;;;;;;;5.22;100.00;100469.13;5035199;28;20037;-91
2024/01/06 04:05:20;;;;;;;8.02;6.10;;;;;;;5.50;100.00;100527.47;5017611;28;20078;-91
2024/01/06 04:07:45;;;;;;;8.52;6.25;;;;;;;5.42;100.00;100535.09;5035181;28;20030;-90
2024/01/06 04:10:10;;;;;;;7.90;5.38;;;;;;;5.45;100.00;100534.31;5034804;28;20025;-90
2024/01/06 04:12:36;;;;;;;7.93;6.03;;;;;;;5.18;100.00;100508.25;5017517;28;20036;-90
2024/01/06 04:15:02;;;;;;;9.00;6.13;;;;;;;5.02;100.00;100483.41;5034990;28;20088;-91
2024/01/06 04:17:27;;;;;;;9.00;6.45;;;;;;;5.25;100.00;100531.16;5017283;28;20116;-91
2024/01/06 04:19:53;;;;;;;9.65;7.22;;;;;;;5.17;100.00;100524.81;5035199;28;20123;-91
2024/01/06 04:22:21;;;;;;;9.93;7.07;;;;;;;5.13;100.00;100531.69;5034850;28;20075;-91
2024/01/06 04:24:47;;;;;;;7.47;6.25;;;;;;;5.25;100.00;100549.50;5016667;28;20480;-92
2024/01/06 04:27:13;;;;;;;9.73;7.70;;;;;;;4.78;100.00;100480.97;5034073;28;20025;-91
2024/01/06 04:29:39;;;;;;;10.85;7.80;;;;;;;4.89;100.00;100503.13;5016729;28;20090;-91
2024/01/06 04:32:12;;;;;;;10.68;7.60;;;;;;;4.90;100.00;100499.66;5034029;28;20040;-91
2024/01/06 04:34:40;;;;;;;9.73;7.35;;;;;;;4.97;100.00;100506.84;5033593;28;20479;-91
2024/01/06 04:37:05;;;;;;;11.00;7.25;;;;;;;5.31;100.00;100559.25;5034001;28;20049;-92
2024/01/06 04:39:30;;;;;;;9.73;7.25;;;;;;;5.31;100.00;100565.41;5033901;28;20037;-91
2024/01/06 04:41:56;;;;;;;9.90;7.18;;;;;;;5.05;100.00;100527.97;5016373;28;20033;-92
2024/01/06 04:44:22;;;;;;;11.98;7.70;;;;;;;5.33;100.00;100576.78;5016197;28;20461;-92
2024/01/06 04:46:47;;;;;;;10.13;7.88;;;;;;;5.26;100.00;100561.72;4999911;28;20033;-92
2024/01/06 04:49:13;;;;;;;9.60;7.47;;;;;;;5.34;100.00;100575.06;5033827;28;20068;-91
2024/01/06 04:51:38;;;;;;;9.00;7.13;;;;;;;5.23;100.00;100559.94;5033505;28;20462;-92
2024/01/06 04:54:06;;;;;;;9.27;7.28;;;;;;;5.39;100.00;100579.56;5015938;28;20426;-92
2024/01/06 04:56:31;;;;;;;10.43;7.60;;;;;;;5.42;100.00;100584.91;5015977;28;20029;-92
2024/01/06 04:58:57;;;;;;;9.52;7.40;;;;;;;5.27;100.00;100555.69;5016090;28;20044;-91
2024/01/06 05:01:24;;;;;;;10.95;7.50;;;;;;;5.11;100.00;100519.44;5016002;28;20454;-91
2024/01/06 05:03:51;;;;;;;11.20;7.18;;;;;;;5.18;100.00;100547.53;4999862;28;20033;-91
2024/01/06 05:06:17;;;;;;;9.98;7.40;;;;;;;5.16;100.00;100552.75;5016070;28;20036;-91
2024/01/06 05:08:45;;;;;;;10.32;7.43;;;;;;;5.28;100.00;100574.03;5033481;28;20025;-92
2024/01/06 05:11:13;;;;;;;8.10;6.55;;;;;;;5.08;100.00;100542.91;5015620;28;20391;-90
2024/01/06 05:13:42;;;;;;;10.13;6.72;;;;;;;5.01;100.00;100536.59;5033047;28;20064;-92
2024/01/06 05:16:08;;;;;;;11.32;6.95;;;;;;;4.95;100.00;100521.59;5033520;28;20025;-92
2024/01/06 05:18:34;;;;;;;9.38;7.18;;;;;;;5.08;100.00;100551.63;5033548;28;20025;-92
2024/01/06 05:21:00;;;;;;;9.55;7.22;;;;;;;5.17;100.00;100571.97;5033148;28;20025;-92
2024/01/06 05:23:27;;;;;;;9.57;6.35;;;;;;;4.97;100.00;100540.00;5033380;28;20030;-91
2024/01/06 05:25:53;;;;;;;9.23;6.18;;;;;;;5.06;100.00;100565.56;5015631;28;20029;-91
2024/01/06 05:28:18;;;;;;;8.48;6.13;;;;;;;4.92;100.00;100547.69;5033327;28;20464;-93
2024/01/06 05:30:44;;;;;;;8.80;6.13;;;;;;;5.11;100.00;100582.28;5033072;28;20037;-92
2024/01/06 05:33:13;;;;;;;9.50;6.72;;;;;;;5.24;100.00;100623.69;5015778;28;20030;-92
2024/01/06 05:35:41;;;;;;;9.63;6.80;;;;;;;5.11;100.00;100598.88;5015529;28;20051;-93
2024/01/06 05:38:09;;;;;;;7.88;5.75;;;;;;;5.17;100.00;100601.66;5032898;28;20365;-92
2024/01/06 05:40:37;;;;;;;8.48;5.70;;;;;;;4.98;100.00;100567.94;5032808;28;20036;-92
2024/01/06 05:43:03;;;;;;;9.38;6.15;;;;;;;4.87;100.00;100562.38;5000001;28;20030;-93
2024/01/06 05:45:28;;;;;;;8.68;6.25;;;;;;;4.93;100.00;100573.06;5033199;28;20070;-92
2024/01/06 05:47:53;;;;;;;9.15;5.95;;;;;;;5.30;100.00;100630.81;5019353;28;20037;-92
2024/01/06 05:50:19;;;;;;;8.18;5.85;;;;;;;5.19;100.00;100622.69;5019832;28;20025;-92
2024/01/06 05:52:47;;;;;;;8.65;5.90;;;;;;;5.21;100.00;100640.19;5036962;28;20532;-92
2024/01/06 05:55:12;;;;;;;8.25;6.00;;;;;;;4.92;100.00;100591.31;5003443;28;20372;-91
2024/01/06 05:57:38;;;;;;;9.10;6.22;;;;;;;5.23;100.00;100646.38;5037226;28;20029;-92
2024/01/06 06:00:07;;;;;;;9.43;6.15;;;;;;;5.21;100.00;100649.78;5019513;28;20041;-93
2024/01/06 06:02:33;;;;;;;7.43;5.72;;;;;;;5.12;100.00;100641.66;5037049;28;20025;-92
2024/01/06 06:04:58;;;;;;;7.95;5.93;;;;;;;5.20;100.00;100654.13;5019563;28;20025;-91
2024/01/06 06:07:23;;;;;;;11.93;6.10;;;;;;;5.17;100.00;100658.41;5019519;28;20064;-90
2024/01/06 06:09:49;;;;;;;8.90;6.00;;;;;;;4.82;100.00;100610.22;5018746;28;20056;-92
2024/01/06 06:12:14;;;;;;;8.65;5.97;;;;;;;5.11;100.00;100672.22;5036905;28;20040;-91
2024/01/06 06:14:40;;;;;;;9.80;6.20;;;;;;;4.99;100.00;100663.97;5036850;28;20030;-91
2024/01/06 06:17:06;;;;;;;8.18;5.90;;;;;;;4.95;100.00;100664.72;5019456;28;20025;-91
2024/01/06 06:19:33;;;;;;;8.80;6.40;;;;;;;5.01;100.00;100673.66;5036714;28;20029;-91
2024/01/06 06:21:59;;;;;;;7.75;5.82;;;;;;;4.97;100.00;100684.88;5019326;28;20033;-91
2024/01/06 06:24:24;;;;;;;8.43;5.95;;;;;;;4.97;100.00;100689.25;5002837;28;20424;-92
2024/01/06 06:26:51;;;;;;;8.45;6.03;;;;;;;4.96;100.00;100690.94;5019437;28;20045;-92
2024/01/06 06:29:16;;;;;;;9.40;5.28;;;;;;;4.89;100.00;100675.03;5036456;28;20071;-92
2024/01/06 06:31:44;;;;;;;8.27;5.05;;;;;;;4.95;100.00;100688.28;5037216;28;20461;-93
2024/01/06 06:34:10;;;;;;;6.35;4.70;;;;;;;5.00;100.00;100707.66;5019313;28;20041;-92
2024/01/06 06:36:36;;;;;;;7.32;5.15;;;;;;;4.84;100.00;100676.59;5002519;28;20061;-92
2024/01/06 06:39:04;;;;;;;6.97;4.90;;;;;;;5.01;100.00;100712.03;5036429;28;20112;-93
2024/01/06 06:41:29;;;;;;;7.15;5.38;;;;;;;4.97;100.00;100712.81;5018724;28;20087;-90
2024/01/06 06:43:55;;;;;;;8.13;5.45;;;;;;;4.96;100.00;100709.28;5002277;28;20038;-91
2024/01/06 06:46:20;;;;;;;8.00;5.95;;;;;;;4.97;100.00;100711.06;5036145;28;20057;-91
2024/01/06 06:48:45;;;;;;;7.95;5.68;;;;;;;4.87;100.00;100695.91;5036258;28;20061;-92
2024/01/06 06:51:11;;;;;;;8.50;6.15;;;;;;;5.08;100.00;100726.22;5018597;28;20564;-91
2024/01/06 06:53:36;;;;;;;11.25;6.10;;;;;;;5.04;100.00;100725.22;5018362;28;20112;-91
2024/01/06 06:56:02;;;;;;;9.27;6.00;;;;;;;5.03;100.00;100736.56;5018632;28;20041;-91
2024/01/06 06:58:27;;;;;;;9.93;6.32;;;;;;;5.02;100.00;100732.16;5018399;28;20036;-91
2024/01/06 07:00:54;;;;;;;8.43;6.47;;;;;;;4.83;100.00;100725.44;5018450;28;20410;-91
2024/01/06 07:03:19;;;;;;;9.27;6.65;;;;;;;5.03;100.00;100760.13;5018153;28;20029;-90
2024/01/06 07:05:45;;;;;;;9.38;7.15;;;;;;;4.98;100.00;100756.47;5018291;28;20154;-90
2024/01/06 07:08:10;;;;;;;10.75;7.07;;;;;;;4.88;100.00;100765.78;5018445;28;20075;-90
2024/01/06 07:10:35;;;;;;;9.82;7.00;;;;;;;4.87;100.00;100773.56;5018123;28;20481;-90
2024/01/06 07:13:01;;;;;;;10.52;7.07;;;;;;;4.78;100.00;100780.25;5037004;28;20033;-91
2024/01/06 07:15:26;;;;;;;10.95;7.28;;;;;;;4.73;100.00;100781.84;5019757;28;20424;-91
2024/01/06 07:17:51;;;;;;;11.52;7.88;;;;;;;4.72;100.00;100781.81;5020165;28;20029;-91
2024/01/06 07:20:19;;;;;;;11.20;8.05;;;;;;;4.38;100.00;100730.97;5037322;28;20465;-90
2024/01/06 07:22:45;;;;;;;12.05;7.85;;;;;;;4.57;100.00;100768.19;5036210;28;20037;-92
2024/01/06 07:25:10;;;;;;;10.35;7.40;;;;;;;4.47;100.00;100753.94;5019573;28;20484;-92
2024/01/06 07:27:36;;;;;;;12.25;7.80;;;;;;;4.47;100.00;100764.38;5040125;28;20025;-91
2024/01/06 07:30:01;;;;;;;13.63;8.57;;;;;;;4.66;100.00;100794.66;5041184;28;20030;-91
2024/01/06 07:32:27;;;;;;;10.75;7.80;;;;;;;4.70;100.00;100796.56;5003487;28;20036;-90
2024/01/06 07:34:52;;;;;;;11.38;7.90;;;;;;;4.55;100.00;100786.47;5037180;28;20030;-89
2024/01/06 07:37:17;;;;;;;11.85;7.82;;;;;;;4.54;100.00;100779.47;5037464;28;20501;-89
2024/01/06 07:39:43;;;;;;;12.20;8.55;;;;;;;4.62;100.00;100785.81;5036342;28;20057;-91
2024/01/06 07:42:08;;;;;;;11.93;8.63;;;;;;;4.69;100.00;100800.91;5038061;28;20466;-90
2024/01/06 07:44:34;;;;;;;13.27;8.25;;;;;;;4.69;100.00;100808.75;5019875;28;20033;-91
2024/01/06 07:46:59;;;;;;;12.45;8.05;;;;;;;4.71;100.00;100812.34;5019309;28;20454;-89
2024/01/06 07:49:24;;;;;;;12.38;8.40;;;;;;;4.62;100.00;100795.41;5036741;28;20034;-90
2024/01/06 07:51:50;;;;;;;11.63;7.97;;;;;;;4.69;100.00;100813.09;5018832;28;20033;-89
2024/01/06 07:54:15;;;;;;;13.05;8.73;;;;;;;4.56;100.00;100803.06;5035906;28;20036;-90
2024/01/06 07:56:41;;;;;;;12.77;7.75;;;;;;;4.64;100.00;100825.16;5019569;28;20501;-93
2024/01/06 07:59:06;;;;;;;13.40;7.85;;;;;;;4.55;100.00;100825.72;5036822;28;20149;-92
2024/01/06 08:01:32;;;;;;;11.95;8.38;;;;;;;4.29;100.00;100792.53;5038530;28;20038;-92
2024/01/06 08:03:58;;;;;;;15.02;8.70;;;;;;;4.53;100.00;100823.03;5042507;28;20044;-93
2024/01/06 08:06:25;;;;;;;13.95;8.77;;;;;;;4.42;100.00;100806.09;5025603;28;20067;-93
2024/01/06 08:08:50;;;;;;;12.55;8.13;;;;;;;4.60;100.00;100847.69;5027246;28;20053;-93
2024/01/06 08:11:15;;;;;;;13.35;8.77;;;;;;;4.50;100.00;100828.19;5030499;28;20040;-92
2024/01/06 08:13:41;;;;;;;13.57;8.55;;;;;;;4.48;100.00;100826.34;5033802;28;20056;-93
2024/01/06 08:16:06;;;;;;;11.80;8.02;;;;;;;4.53;100.00;100835.22;5031985;28;20508;-92
2024/01/06 08:18:32;;;;;;;12.38;8.25;;;;;;;4.55;100.00;100843.16;5050717;28;20489;-92
2024/01/06 08:20:58;;;;;;;12.80;8.50;;;;;;;4.71;100.00;100863.75;5032012;28;20374;-93
2024/01/06 08:23:23;;;;;;;13.60;8.05;;;;;;;4.63;100.00;100852.16;5021392;28;20068;-91
2024/01/06 08:25:48;;;;;;;14.30;8.88;;;;;;;4.68;100.00;100869.81;5037437;28;20037;-93
2024/01/06 08:28:18;;;;;;;12.23;8.27;;;;;;;4.71;100.00;100880.38;5020528;28;20158;-92
2024/01/06 08:30:46;;;;;;;12.48;8.38;;;;;;;4.47;100.00;100835.03;5038024;28;20034;-93
2024/01/06 08:33:12;;;;;;;11.57;8.15;;;;;;;4.65;100.00;100874.91;5008249;28;20040;-91
2024/01/06 08:35:40;;;;;;;11.23;8.00;;;;;;;4.48;100.00;100855.13;5045132;28;20120;-95
2024/01/06 08:38:06;;;;;;;11.20;7.80;;;;;;;4.60;100.00;100889.56;5019310;28;20208;-92
2024/01/06 08:40:32;;;;;;;11.80;8.23;;;;;;;4.63;100.00;100894.94;5041005;28;20013;-93
2024/01/06 08:42:57;;;;;;;11.75;8.50;;;;;;;4.56;100.00;100887.69;5049934;28;20067;-96
2024/01/06 08:45:25;;;;;;;11.85;8.32;;;;;;;4.57;100.00;100907.78;5013549;28;20029;-94
2024/01/06 08:47:51;;;;;;;13.07;8.10;;;;;;;4.50;100.00;100897.94;5028925;28;20120;-95
2024/01/06 08:50:16;;;;;;;12.02;8.23;;;;;;;4.39;100.00;100889.69;5020899;28;20045;-92
2024/01/06 08:52:41;;;;;;;12.80;8.60;;;;;;;4.55;100.00;100914.69;5020112;28;20449;-96
2024/01/06 08:55:07;;;;;;;11.55;7.80;;;;;;;4.47;100.00;100914.41;5022631;28;20131;-96
2024/01/06 08:57:33;;;;;;;13.30;8.63;;;;;;;4.47;100.00;100921.38;5024445;28;20505;-95
2024/01/06 08:59:58;;;;;;;11.57;7.85;;;;;;;4.46;100.00;100916.97;5037391;28;20032;-96
2024/01/06 09:02:24;;;;;;;11.73;8.38;;;;;;;4.45;100.00;100915.19;5037269;28;20025;-93
2024/01/06 09:04:49;;;;;;;12.05;8.10;;;;;;;4.57;100.00;100936.56;5034889;28;20065;-93
2024/01/06 09:07:16;;;;;;;11.93;8.40;;;;;;;4.52;100.00;100935.50;5034807;28;20033;-94
2024/01/06 09:09:41;;;;;;;12.70;7.55;;;;;;;4.60;100.00;100941.03;5016303;28;20056;-93
2024/01/06 09:12:08;;;;;;;14.38;8.45;;;;;;;4.62;100.00;100941.97;5034818;28;20044;-93
2024/01/06 09:14:33;;;;;;;12.68;8.18;;;;;;;4.66;100.00;100939.50;5036229;28;20029;-93
2024/01/06 09:16:58;;;;;;;11.60;8.10;;;;;;;4.65;100.00;100936.84;5036604;28;20103;-94
2024/01/06 09:19:24;;;;;;;12.15;8.57;;;;;;;4.44;100.00;100911.66;5036419;28;20115;-92
2024/01/06 09:21:49;;;;;;;13.38;8.25;;;;;;;4.57;100.00;100926.09;5001585;28;20021;-92
2024/01/06 09:24:15;;;;;;;15.55;8.20;;;;;;;4.78;100.00;100954.75;5036346;28;20436;-93
2024/01/06 09:26:40;;;;;;;12.48;8.45;;;;;;;4.69;100.00;100937.00;5016581;28;20470;-93
2024/01/06 09:29:06;;;;;;;12.13;8.02;;;;;;;4.79;100.00;100969.63;5033776;28;20442;-94
2024/01/06 09:31:31;;;;;;;11.85;7.53;;;;;;;4.60;100.00;100946.25;5034176;28;20164;-93
2024/01/06 09:34:02;;;;;;;15.35;7.57;;;;;;;4.66;100.00;100965.69;5016773;28;20021;-93
2024/01/06 09:36:27;;;;;;;10.95;7.75;;;;;;;4.68;100.00;100973.59;5018376;28;20064;-94
2024/01/06 09:38:53;;;;;;;9.48;6.85;;;;;;;4.64;100.00;100969.97;5034650;28;20446;-94
2024/01/06 09:41:21;;;;;;;11.85;7.97;;;;;;;4.66;100.00;100977.88;5018267;28;20505;-93
2024/01/06 09:43:47;;;;;;;10.32;7.32;;;;;;;4.60;100.00;100975.03;5017494;28;20080;-94
2024/01/06 09:46:18;;;;;;;11.95;7.30;;;;;;;4.73;100.00;100996.50;5035794;28;20029;-92
2024/01/06 09:48:45;;;;;;;14.40;8.00;;;;;;;4.56;100.00;100974.03;5035125;28;20032;-92
2024/01/06 09:51:11;;;;;;;13.85;7.20;;;;;;;4.59;100.00;100981.13;5035292;28;20031;-92
2024/01/06 09:53:47;;;;;;;9.55;6.97;;;;;;;4.55;100.00;100974.00;5034198;28;20021;-93
2024/01/06 09:56:14;;;;;;;9.70;6.97;;;;;;;4.73;100.00;101008.69;5033581;28;20060;-93
2024/01/06 09:58:41;;;;;;;12.55;7.15;;;;;;;4.63;100.00;101002.22;5033239;28;20032;-92
2024/01/06 10:01:08;;;;;;;10.32;6.90;;;;;;;4.71;100.00;101024.34;5015447;28;20048;-92
2024/01/06 10:03:35;;;;;;;10.35;6.78;;;;;;;4.71;100.00;101026.03;5033374;28;20026;-92
2024/01/06 10:06:03;;;;;;;11.00;6.97;;;;;;;4.64;100.00;101019.72;5033333;28;20034;-93
2024/01/06 10:08:30;;;;;;;10.77;6.85;;;;;;;4.66;100.00;101018.03;5015754;28;20120;-93
2024/01/06 10:10:55;;;;;;;9.73;6.82;;;;;;;4.62;100.00;101010.00;5032954;28;20037;-93
2024/01/06 10:13:21;;;;;;;9.07;6.75;;;;;;;4.71;100.00;101031.28;5015694;28;20026;-94
2024/01/06 10:15:46;;;;;;;10.20;6.65;;;;;;;4.80;100.00;101043.81;5032824;28;20410;-94
2024/01/06 10:18:13;;;;;;;10.75;6.53;;;;;;;4.75;100.00;101028.88;5033204;28;20062;-93
2024/01/06 10:20:38;;;;;;;8.70;6.65;;;;;;;4.90;100.00;101054.69;5014946;28;20108;-93
2024/01/06 10:23:05;;;;;;;10.43;7.25;;;;;;;4.82;100.00;101043.06;5032586;28;20108;-93
2024/01/06 10:25:30;;;;;;;8.25;6.63;;;;;;;4.84;100.00;101050.94;5032645;28;20026;-93
2024/01/06 10:27:56;;;;;;;9.98;6.78;;;;;;;4.88;100.00;101050.22;4999072;28;20032;-94
2024/01/06 10:30:21;;;;;;;10.38;7.40;;;;;;;4.89;100.00;101052.03;5015192;28;20080;-94
2024/01/06 10:32:47;;;;;;;13.50;7.05;;;;;;;4.92;100.00;101049.50;5016900;28;20403;-94
2024/01/06 10:35:12;;;;;;;10.88;7.53;;;;;;;4.92;100.00;101053.00;5036767;28;20036;-93
2024/01/06 10:37:37;;;;;;;11.45;7.18;;;;;;;4.91;100.00;101055.59;5002062;28;20056;-94
2024/01/06 10:40:15;;;;;;;11.60;7.80;;;;;;;4.88;100.00;101047.63;5002533;28;20362;-94
2024/01/06 10:42:45;;;;;;;10.70;6.85;;;;;;;4.73;100.00;101053.19;5020476;28;20481;-94
2024/01/06 10:45:13;;;;;;;12.18;7.47;;;;;;;4.70;100.00;101047.81;5002942;28;20350;-93
2024/01/06 10:47:40;;;;;;;10.35;7.10;;;;;;;4.79;100.00;101053.41;5036258;28;20035;-94
2024/01/06 10:50:07;;;;;;;10.63;7.68;;;;;;;4.73;100.00;101050.56;5018536;28;20099;-93
2024/01/06 10:52:37;;;;;;;9.98;7.03;;;;;;;4.81;100.00;101066.56;5022959;28;20018;-94
2024/01/06 10:55:04;;;;;;;9.57;6.40;;;;;;;4.67;100.00;101048.63;5035842;28;20075;-94
2024/01/06 10:57:31;;;;;;;9.40;6.55;;;;;;;4.69;100.00;101051.28;5018839;28;20021;-93
2024/01/06 10:59:58;;;;;;;9.48;6.78;;;;;;;4.69;100.00;101053.91;5018802;28;20037;-93
2024/01/06 11:02:28;;;;;;;9.55;6.82;;;;;;;4.70;100.00;101053.94;5036730;28;20029;-93
2024/01/06 11:04:54;;;;;;;11.20;7.07;;;;;;;4.70;100.00;101069.66;5018939;28;20063;-94
2024/01/06 11:07:25;;;;;;;10.38;6.82;;;;;;;4.69;100.00;101067.88;5018416;28;20357;-95
2024/01/06 11:09:53;;;;;;;9.88;6.25;;;;;;;4.68;100.00;101057.38;5035391;28;20029;-95
2024/01/06 11:12:19;;;;;;;12.27;6.80;;;;;;;4.80;100.00;101081.38;5036056;28;20426;-94
2024/01/06 11:14:47;;;;;;;12.98;6.63;;;;;;;4.81;100.00;101080.53;5018102;28;20034;-94